Time;durP1;ratioP1;P1;durP2;ratioP2;P2;SDS_P1;SDS_P2;PMS_P1;PMS_P2;Temp;Humidity;BMP_temperature;BMP_pressure;BME280_temperature;BME280_humidity;BME280_pressure;Samples;Min_cycle;Max_cycle;Signal;HPM_P1;HPM_P2
2022/04/25 00:01:03;;;;;;;23.20;15.52;;;10.80;63.40;;;;;;4991552;28;20771;-73
2022/04/25 00:03:29;;;;;;;30.67;19.75;;;10.40;79.30;;;;;;4990139;28;20412;-73
2022/04/25 00:05:55;;;;;;;36.08;20.15;;;9.90;99.90;;;;;;4990969;28;20410;-72
2022/04/25 00:08:21;;;;;;;29.93;18.87;;;9.20;99.90;;;;;;5003210;28;20412;-73
2022/04/25 00:10:46;;;;;;;34.13;18.37;;;8.70;99.90;;;;;;4981403;28;20420;-72
2022/04/25 00:13:14;;;;;;;29.15;18.45;;;8.50;99.90;;;;;;4991555;28;20437;-74
2022/04/25 00:15:40;;;;;;;36.93;19.80;;;8.40;99.90;;;;;;4992414;28;20417;-72
2022/04/25 00:18:06;;;;;;;24.02;15.27;;;8.40;99.90;;;;;;4981113;28;20435;-71
2022/04/25 00:20:31;;;;;;;20.67;13.93;;;8.50;99.90;;;;;;4990468;28;20446;-72
2022/04/25 00:23:00;;;;;;;25.30;15.35;;;8.60;99.90;;;;;;4990713;28;20918;-72
2022/04/25 00:25:27;;;;;;;24.70;14.90;;;8.80;99.90;;;;;;4991079;28;20402;-72
2022/04/25 00:27:53;;;;;;;24.25;15.50;;;9.10;99.90;;;;;;4983181;28;20418;-72
2022/04/25 00:30:19;;;;;;;23.52;15.90;;;9.10;99.90;;;;;;4992073;28;20414;-71
2022/04/25 00:32:45;;;;;;;22.47;14.37;;;9.00;99.90;;;;;;4989329;28;20509;-74
2022/04/25 00:35:10;;;;;;;24.93;14.70;;;9.30;99.90;;;;;;4972639;28;20388;-73
2022/04/25 00:37:36;;;;;;;20.60;12.60;;;9.30;99.90;;;;;;4980363;28;20417;-74
2022/04/25 00:40:02;;;;;;;19.67;12.07;;;9.20;99.90;;;;;;4991693;28;20397;-73
2022/04/25 00:42:28;;;;;;;17.73;11.77;;;9.20;99.90;;;;;;4990751;28;20819;-72
2022/04/25 00:44:53;;;;;;;15.68;10.00;;;9.40;99.90;;;;;;4988784;28;20426;-75
2022/04/25 00:47:20;;;;;;;16.15;9.70;;;9.50;99.90;;;;;;4990405;28;20406;-73
2022/04/25 00:49:45;;;;;;;16.40;10.73;;;9.40;99.90;;;;;;4983824;28;20499;-73
2022/04/25 00:52:11;;;;;;;15.95;10.20;;;9.30;99.90;;;;;;4970693;28;20476;-72
2022/04/25 00:54:36;;;;;;;14.73;10.45;;;9.40;99.90;;;;;;4970709;28;20388;-73
2022/04/25 00:57:02;;;;;;;16.30;11.20;;;9.40;99.90;;;;;;4985592;28;20410;-74
2022/04/25 00:59:29;;;;;;;18.67;10.50;;;9.40;99.90;;;;;;4989792;28;20418;-73
2022/04/25 01:01:55;;;;;;;13.27;9.98;;;9.60;99.90;;;;;;4973844;28;20420;-72
2022/04/25 01:04:21;;;;;;;14.25;9.75;;;9.50;99.90;;;;;;4969969;28;20467;-72
2022/04/25 01:06:48;;;;;;;14.88;10.02;;;9.30;99.90;;;;;;4980916;28;20418;-72
2022/04/25 01:09:14;;;;;;;17.83;10.60;;;9.30;99.90;;;;;;4989675;28;20470;-72
2022/04/25 01:11:39;;;;;;;12.45;9.65;;;9.30;99.90;;;;;;4980244;28;20481;-74
2022/04/25 01:14:16;;;;;;;14.25;10.23;;;9.20;99.90;;;;;;4989586;28;20387;-74
2022/04/25 01:16:43;;;;;;;13.38;9.77;;;9.10;99.90;;;;;;4989113;28;20394;-73
2022/04/25 01:19:08;;;;;;;17.80;10.13;;;9.20;99.90;;;;;;4981060;28;20441;-74
2022/04/25 01:21:40;;;;;;;10.10;8.57;;;9.30;99.90;;;;;;4970268;28;20774;-74
2022/04/25 01:29:36;;;;;;;16.92;9.43;;;8.90;99.90;;;;;;4985609;28;20503;-75
2022/04/25 01:32:02;;;;;;;14.15;10.60;;;9.00;99.90;;;;;;4972295;28;20475;-75
2022/04/25 01:34:28;;;;;;;17.08;10.65;;;9.10;99.90;;;;;;4988148;28;20863;-74
2022/04/25 01:36:54;;;;;;;15.50;11.60;;;9.00;99.90;;;;;;4991184;28;20403;-74
2022/04/25 01:39:19;;;;;;;15.82;10.38;;;9.10;99.90;;;;;;4984132;28;20918;-74
2022/04/25 01:41:45;;;;;;;16.35;11.18;;;9.20;99.90;;;;;;4992877;28;20882;-75
2022/04/25 01:44:10;;;;;;;17.67;11.10;;;9.20;99.90;;;;;;4990153;28;20883;-75
2022/04/25 01:46:39;;;;;;;14.77;10.70;;;9.30;99.90;;;;;;4991548;28;20386;-74
2022/04/25 01:49:04;;;;;;;13.03;9.53;;;9.50;99.90;;;;;;4983193;28;20392;-74
2022/04/25 01:51:32;;;;;;;11.75;8.65;;;9.40;99.90;;;;;;4991219;28;20894;-75
2022/04/25 01:53:58;;;;;;;10.95;8.30;;;9.30;99.90;;;;;;4991232;28;20440;-74
2022/04/25 01:56:23;;;;;;;9.38;7.47;;;9.30;99.90;;;;;;4990854;28;20497;-73
2022/04/25 01:58:49;;;;;;;11.05;9.00;;;9.30;99.90;;;;;;4983496;28;20881;-73
2022/04/25 02:01:14;;;;;;;10.43;8.70;;;9.30;99.90;;;;;;4971619;28;20395;-74
2022/04/25 02:03:41;;;;;;;10.75;8.55;;;9.20;99.90;;;;;;4971744;28;20396;-74
2022/04/25 02:06:06;;;;;;;11.73;8.90;;;9.20;99.90;;;;;;4980167;28;20418;-74
2022/04/25 02:08:32;;;;;;;11.98;9.20;;;9.30;99.90;;;;;;4988856;28;20387;-73
2022/04/25 02:13:42;;;;;;;11.35;8.50;;;9.30;99.90;;;;;;4993847;28;20429;-73
2022/04/25 02:16:08;;;;;;;12.43;8.47;;;9.20;99.90;;;;;;4992447;28;20388;-74
2022/04/25 02:18:35;;;;;;;10.80;8.40;;;9.20;99.90;;;;;;4975275;28;20475;-74
2022/04/25 02:21:01;;;;;;;10.40;8.60;;;9.10;99.90;;;;;;4990039;28;20391;-73
2022/04/25 02:23:27;;;;;;;11.70;8.95;;;9.10;99.90;;;;;;4993778;28;20412;-74
2022/04/25 02:25:52;;;;;;;12.73;9.85;;;9.00;99.90;;;;;;4986386;28;20398;-74
2022/04/25 02:28:18;;;;;;;11.73;9.20;;;8.90;99.90;;;;;;4975917;28;20475;-73
2022/04/25 02:30:43;;;;;;;12.90;9.57;;;8.80;99.90;;;;;;4976139;28;20404;-74
2022/04/25 02:33:09;;;;;;;13.30;10.10;;;8.80;99.90;;;;;;4982966;28;20426;-74
2022/04/25 02:35:34;;;;;;;15.17;10.53;;;8.80;99.90;;;;;;4994591;28;20425;-74
2022/04/25 02:38:00;;;;;;;11.53;9.40;;;8.90;99.90;;;;;;4985955;28;20398;-74
2022/04/25 02:40:26;;;;;;;13.30;10.43;;;8.80;99.90;;;;;;4995299;28;20430;-74
2022/04/25 02:42:51;;;;;;;13.63;10.60;;;8.70;99.90;;;;;;4992744;28;20440;-74
2022/04/25 02:45:17;;;;;;;12.37;10.03;;;8.60;99.90;;;;;;4986808;28;20430;-72
2022/04/25 02:47:44;;;;;;;15.10;10.70;;;8.60;99.90;;;;;;4986230;28;20416;-73
2022/04/25 02:50:09;;;;;;;12.18;10.20;;;8.50;99.90;;;;;;4993795;28;20537;-73
2022/04/25 02:52:35;;;;;;;13.30;10.60;;;8.40;99.90;;;;;;4993627;28;20863;-72
2022/04/25 02:55:00;;;;;;;15.50;11.02;;;8.30;99.90;;;;;;4991529;28;20418;-73
2022/04/25 02:57:26;;;;;;;13.88;10.43;;;8.40;99.90;;;;;;4993494;28;20407;-74
2022/04/25 02:59:52;;;;;;;14.03;10.83;;;8.30;99.90;;;;;;4985033;28;20753;-73
2022/04/25 03:02:17;;;;;;;14.82;11.32;;;8.40;99.90;;;;;;4973905;28;20439;-73
2022/04/25 03:04:43;;;;;;;15.25;10.73;;;8.40;99.90;;;;;;4974820;28;20393;-73
2022/04/25 03:07:08;;;;;;;15.85;11.63;;;8.30;99.90;;;;;;4993666;28;20486;-73
2022/04/25 03:09:34;;;;;;;18.50;11.80;;;8.30;99.90;;;;;;4993875;28;20403;-74
2022/04/25 03:12:00;;;;;;;17.02;11.80;;;8.20;99.90;;;;;;4993536;28;20820;-73
2022/04/25 03:14:26;;;;;;;17.08;11.98;;;8.20;99.90;;;;;;4994558;28;20899;-73
2022/04/25 03:16:51;;;;;;;15.30;11.90;;;8.20;99.90;;;;;;4992531;28;20391;-73
2022/04/25 03:19:18;;;;;;;18.17;12.17;;;8.20;99.90;;;;;;4984640;28;20852;-74
2022/04/25 03:21:44;;;;;;;14.43;10.82;;;8.50;99.90;;;;;;4979276;28;20484;-75
2022/04/25 03:24:09;;;;;;;16.77;12.97;;;8.30;99.90;;;;;;4977970;28;20407;-75
2022/04/25 03:26:37;;;;;;;18.40;12.63;;;8.10;99.90;;;;;;4980005;28;20392;-74
2022/04/25 03:29:03;;;;;;;15.98;12.40;;;8.10;99.90;;;;;;4987708;28;20775;-74
2022/04/25 03:31:28;;;;;;;16.30;11.50;;;8.30;99.90;;;;;;4993631;28;20470;-74
2022/04/25 03:33:54;;;;;;;15.38;11.75;;;8.30;99.90;;;;;;5002910;28;20387;-73
2022/04/25 03:36:20;;;;;;;15.33;11.80;;;8.40;99.90;;;;;;4997788;28;20552;-73
2022/04/25 03:38:46;;;;;;;17.55;12.50;;;8.40;99.90;;;;;;4996057;28;20862;-73
2022/04/25 03:41:11;;;;;;;15.30;11.75;;;8.20;99.90;;;;;;4987926;28;20384;-74
2022/04/25 03:43:37;;;;;;;19.75;13.25;;;7.90;99.90;;;;;;4976105;28;20467;-74
2022/04/25 03:46:03;;;;;;;19.38;12.80;;;7.90;99.90;;;;;;4977564;28;20457;-74
2022/04/25 03:48:29;;;;;;;20.13;13.00;;;8.00;99.90;;;;;;5001098;28;20433;-74
2022/04/25 03:50:54;;;;;;;17.30;12.90;;;8.00;99.90;;;;;;4993955;28;20437;-74
2022/04/25 03:53:20;;;;;;;22.60;14.00;;;7.80;99.90;;;;;;4992797;28;20414;-74
2022/04/25 03:58:31;;;;;;;17.23;13.30;;;7.60;99.90;;;;;;4989994;28;20453;-73
2022/04/25 04:00:57;;;;;;;20.58;13.90;;;7.60;99.90;;;;;;4975962;28;20392;-74
2022/04/25 04:03:23;;;;;;;26.00;14.50;;;7.50;99.90;;;;;;4973897;28;20463;-74
2022/04/25 04:05:50;;;;;;;20.50;13.88;;;7.50;99.90;;;;;;4976853;28;20411;-74
2022/04/25 04:08:16;;;;;;;20.67;13.77;;;7.50;99.90;;;;;;4992268;28;20390;-73
2022/04/25 04:10:42;;;;;;;18.70;14.27;;;7.60;99.90;;;;;;5008178;28;20421;-74
2022/04/25 04:13:08;;;;;;;20.95;14.60;;;7.50;99.90;;;;;;4992869;28;20395;-74
2022/04/25 04:15:34;;;;;;;20.10;14.45;;;7.40;99.90;;;;;;4993661;28;20481;-74
2022/04/25 04:17:59;;;;;;;21.03;15.20;;;7.40;99.90;;;;;;4984149;28;20408;-74
2022/04/25 04:20:25;;;;;;;25.00;15.60;;;7.40;99.90;;;;;;4982260;28;20512;-74
2022/04/25 04:22:51;;;;;;;22.07;16.10;;;7.50;99.90;;;;;;4973535;28;20731;-74
2022/04/25 04:25:16;;;;;;;23.33;16.10;;;7.50;99.90;;;;;;4973850;28;20490;-74
2022/04/25 04:27:43;;;;;;;25.05;16.80;;;7.50;99.90;;;;;;4973916;28;20881;-76
2022/04/25 04:30:10;;;;;;;28.58;18.27;;;7.70;99.90;;;;;;4981084;28;20418;-75
2022/04/25 04:32:38;;;;;;;28.83;18.42;;;7.70;99.90;;;;;;4987305;28;20468;-75
2022/04/25 04:35:06;;;;;;;33.67;20.38;;;7.70;99.90;;;;;;4992809;28;20409;-75
2022/04/25 04:37:35;;;;;;;33.20;21.33;;;7.90;99.90;;;;;;4993009;28;20388;-74
2022/04/25 04:40:47;;;;;;;35.63;22.40;;;8.00;99.90;;;;;;4993599;28;20394;-76
2022/04/25 04:42:47;;;;;;;26.30;18.33;;;8.00;99.90;;;;;;4984633;28;20783;-76
2022/04/25 04:45:15;;;;;;;26.35;18.13;;;8.10;99.90;;;;;;4995071;28;20394;-73
2022/04/25 04:47:40;;;;;;;27.77;16.27;;;8.10;99.90;;;;;;4998311;28;20394;-75
2022/04/25 04:50:15;;;;;;;24.95;16.77;;;8.00;99.90;;;;;;4997047;28;20442;-74
2022/04/25 04:52:45;;;;;;;24.30;15.82;;;8.10;99.90;;;;;;4995808;28;20473;-75
2022/04/25 04:55:11;;;;;;;22.70;17.40;;;8.00;99.90;;;;;;4991035;28;20497;-74
2022/04/25 04:57:38;;;;;;;22.42;15.55;;;8.10;99.90;;;;;;4974602;28;20388;-75
2022/04/25 05:00:08;;;;;;;23.65;16.15;;;8.10;99.90;;;;;;4974034;28;20752;-73
2022/04/25 05:02:34;;;;;;;25.98;16.02;;;8.10;99.90;;;;;;4975567;28;20396;-73
2022/04/25 05:05:00;;;;;;;24.98;17.00;;;8.00;99.90;;;;;;4990410;28;20437;-75
2022/04/25 05:07:25;;;;;;;26.17;17.60;;;8.20;99.90;;;;;;4980985;28;20431;-74
2022/04/25 05:09:52;;;;;;;27.60;19.10;;;8.20;99.90;;;;;;4972033;28;20485;-74
2022/04/25 05:12:19;;;;;;;27.65;18.60;;;8.30;99.90;;;;;;4974259;28;20403;-75
2022/04/25 05:14:45;;;;;;;25.40;18.27;;;8.40;99.90;;;;;;4977123;28;20388;-72
2022/04/25 05:17:11;;;;;;;25.10;18.17;;;8.50;99.90;;;;;;5002742;28;20462;-73
2022/04/25 05:19:36;;;;;;;26.40;17.97;;;8.60;99.90;;;;;;4997648;28;20740;-72
2022/04/25 05:22:02;;;;;;;25.93;16.77;;;8.70;99.90;;;;;;5003980;28;20386;-72
2022/04/25 05:24:27;;;;;;;27.93;18.10;;;8.80;99.90;;;;;;5000824;28;20419;-74
2022/04/25 05:26:53;;;;;;;25.83;18.57;;;9.10;99.90;;;;;;4990940;28;20416;-73
2022/04/25 05:29:18;;;;;;;27.77;19.50;;;9.20;99.90;;;;;;4986623;28;20425;-73
2022/04/25 05:31:44;;;;;;;31.33;19.13;;;9.30;99.90;;;;;;4990036;28;20485;-73
2022/04/25 05:34:10;;;;;;;28.42;19.88;;;9.30;99.90;;;;;;4984787;28;20434;-71
2022/04/25 05:36:35;;;;;;;28.63;19.88;;;9.30;99.90;;;;;;4990124;28;20409;-72
2022/04/25 05:39:01;;;;;;;29.75;19.90;;;9.40;99.90;;;;;;4990738;28;20422;-72
2022/04/25 05:41:27;;;;;;;32.00;20.65;;;9.50;99.90;;;;;;4989724;28;20424;-73
2022/04/25 05:43:52;;;;;;;31.10;21.65;;;9.60;99.90;;;;;;4984312;28;20406;-73
2022/04/25 05:46:20;;;;;;;30.20;21.13;;;9.90;99.90;;;;;;4992704;28;20905;-73
2022/04/25 05:54:15;;;;;;;29.90;20.30;;;10.20;99.90;;;;;;4988966;28;20934;-72
2022/04/25 05:56:40;;;;;;;30.27;20.73;;;10.10;99.90;;;;;;4983098;28;20479;-73
2022/04/25 05:59:06;;;;;;;29.10;21.47;;;10.20;99.90;;;;;;4990409;28;20898;-73
2022/04/25 06:01:32;;;;;;;27.63;19.10;;;10.30;99.90;;;;;;4988350;28;20904;-72
2022/04/25 06:03:57;;;;;;;26.80;19.70;;;10.30;99.90;;;;;;4995046;28;20429;-72
2022/04/25 06:06:26;;;;;;;30.00;20.30;;;10.30;99.90;;;;;;4989542;28;20514;-72
2022/04/25 06:08:51;;;;;;;33.00;20.63;;;10.30;99.90;;;;;;5001130;28;20470;-74
2022/04/25 06:11:17;;;;;;;26.37;18.80;;;10.30;99.90;;;;;;4987024;28;20410;-75
2022/04/25 06:13:44;;;;;;;27.13;18.83;;;10.20;96.90;;;;;;4991642;28;20417;-72
2022/04/25 06:16:11;;;;;;;25.40;19.30;;;10.20;90.60;;;;;;4992227;28;20783;-72
2022/04/25 06:18:37;;;;;;;28.08;19.58;;;10.10;96.70;;;;;;4981359;28;20402;-73
2022/04/25 06:21:02;;;;;;;29.80;20.00;;;10.10;98.00;;;;;;4987224;28;20422;-72
2022/04/25 06:23:28;;;;;;;27.00;19.63;;;10.10;95.40;;;;;;4986647;28;20486;-73
2022/04/25 06:25:53;;;;;;;29.37;20.10;;;10.20;97.00;;;;;;4984082;28;20410;-73
2022/04/25 06:28:19;;;;;;;30.67;19.83;;;10.30;99.70;;;;;;4991471;28;20465;-73
2022/04/25 06:30:45;;;;;;;28.55;19.30;;;10.40;92.60;;;;;;4991123;28;20508;-74
2022/04/25 06:33:10;;;;;;;28.90;21.20;;;10.50;90.90;;;;;;4991082;28;20508;-74
2022/04/25 06:35:36;;;;;;;26.92;18.40;;;10.50;99.20;;;;;;4991467;28;20403;-74
2022/04/25 06:38:02;;;;;;;28.38;21.02;;;10.60;91.80;;;;;;4993513;28;20402;-75
2022/04/25 06:40:27;;;;;;;29.65;20.88;;;10.50;81.80;;;;;;4993731;28;20410;-74
2022/04/25 06:42:53;;;;;;;29.47;20.70;;;10.50;91.40;;;;;;4989929;28;20419;-76
2022/04/25 06:45:19;;;;;;;30.83;20.13;;;10.50;88.00;;;;;;4986407;28;20864;-77
2022/04/25 06:47:45;;;;;;;31.80;19.90;;;10.50;95.70;;;;;;4988641;28;20402;-76
2022/04/25 06:50:11;;;;;;;37.53;20.58;;;10.40;95.40;;;;;;4987267;28;20887;-76
2022/04/25 06:52:37;;;;;;;28.65;18.58;;;10.60;87.50;;;;;;4992557;28;20410;-76
2022/04/25 06:55:07;;;;;;;28.65;18.25;;;10.70;78.10;;;;;;4990092;28;20449;-77
2022/04/25 06:57:33;;;;;;;29.65;20.00;;;10.60;87.90;;;;;;4990657;28;20415;-79
2022/04/25 07:00:01;;;;;;;32.03;21.58;;;10.50;90.80;;;;;;5000095;28;20421;-76
2022/04/25 07:02:27;;;;;;;36.30;22.02;;;10.60;90.90;;;;;;5000939;28;20430;-75
2022/04/25 07:05:00;;;;;;;31.23;20.77;;;10.80;89.70;;;;;;4991053;28;20445;-74
2022/04/25 07:07:26;;;;;;;32.13;20.60;;;10.70;91.30;;;;;;4987010;28;20412;-74
2022/04/25 07:09:52;;;;;;;27.02;19.20;;;10.80;87.10;;;;;;4989483;28;20425;-74
2022/04/25 07:12:18;;;;;;;27.70;18.13;;;10.90;77.50;;;;;;5003776;28;20899;-75
2022/04/25 07:14:43;;;;;;;30.90;19.60;;;10.90;74.00;;;;;;4986908;28;20675;-74
2022/04/25 07:17:09;;;;;;;25.73;19.42;;;11.00;72.60;;;;;;4989984;28;20418;-75
2022/04/25 07:19:39;;;;;;;27.35;19.58;;;11.00;68.70;;;;;;4989377;28;20525;-76
2022/04/25 07:30:18;;;;;;;30.17;20.35;;;10.80;64.80;;;;;;4985838;28;20461;-73
2022/04/25 07:32:44;;;;;;;30.77;20.93;;;10.70;66.00;;;;;;4989234;28;20429;-75
2022/04/25 07:35:10;;;;;;;33.40;22.70;;;10.70;67.10;;;;;;4986035;28;20414;-74
2022/04/25 07:37:36;;;;;;;28.17;20.60;;;10.80;67.70;;;;;;4988036;28;20791;-74
2022/04/25 07:40:02;;;;;;;29.50;19.87;;;10.80;67.00;;;;;;4990803;28;20405;-73
2022/04/25 07:42:29;;;;;;;29.85;20.35;;;10.90;66.00;;;;;;4991996;28;20433;-76
2022/04/25 07:44:55;;;;;;;29.08;20.23;;;10.90;62.70;;;;;;4993280;28;20760;-77
2022/04/25 07:47:22;;;;;;;35.03;21.10;;;10.90;62.60;;;;;;5014825;28;20871;-77
2022/04/25 07:49:48;;;;;;;31.17;21.00;;;10.90;62.00;;;;;;4993707;28;20421;-77
2022/04/25 07:52:14;;;;;;;31.33;21.23;;;10.90;62.20;;;;;;4991397;28;20408;-76
2022/04/25 07:54:39;;;;;;;25.52;18.85;;;10.90;64.30;;;;;;5012938;28;20398;-75
2022/04/25 07:57:05;;;;;;;29.30;20.07;;;10.90;61.20;;;;;;4993268;28;20494;-74
2022/04/25 07:59:32;;;;;;;29.08;19.85;;;10.90;60.30;;;;;;4997563;28;20490;-75
2022/04/25 08:01:57;;;;;;;30.17;20.88;;;10.90;61.70;;;;;;4996493;28;20472;-76
2022/04/25 08:04:23;;;;;;;30.77;20.80;;;11.00;62.50;;;;;;4998810;28;20626;-76
2022/04/25 08:06:48;;;;;;;30.27;21.97;;;11.20;62.20;;;;;;5001525;28;20466;-75
2022/04/25 08:09:15;;;;;;;31.07;21.30;;;11.30;59.50;;;;;;4998994;28;20406;-74
2022/04/25 08:11:41;;;;;;;29.08;21.00;;;11.40;57.80;;;;;;4997876;28;20497;-76
2022/04/25 08:19:34;;;;;;;30.65;21.58;;;11.30;59.90;;;;;;4995383;28;20423;-72
2022/04/25 08:22:00;;;;;;;36.20;25.90;;;11.40;55.80;;;;;;4989169;28;20721;-74
2022/04/25 08:24:26;;;;;;;35.40;25.48;;;11.30;63.30;;;;;;4989760;28;20488;-73
2022/04/25 08:26:53;;;;;;;32.55;24.30;;;11.10;67.40;;;;;;4990134;28;20433;-74
2022/04/25 08:29:19;;;;;;;35.85;23.60;;;11.20;64.10;;;;;;4988508;28;20772;-74
2022/04/25 08:31:45;;;;;;;33.00;24.20;;;11.30;63.80;;;;;;4989354;28;20414;-77
2022/04/25 08:34:10;;;;;;;33.93;24.77;;;11.20;69.30;;;;;;4989881;28;20417;-74
2022/04/25 08:36:36;;;;;;;32.70;23.20;;;11.20;67.50;;;;;;4989161;28;20421;-75
2022/04/25 08:39:03;;;;;;;38.27;24.83;;;11.40;61.90;;;;;;4986153;28;20411;-76
2022/04/25 08:41:57;;;;;;;33.60;24.73;;;11.30;63.40;;;;;;4985502;28;20425;-74
2022/04/25 08:44:24;;;;;;;37.20;25.02;;;11.30;63.80;;;;;;4991515;28;20410;-76
2022/04/25 08:46:52;;;;;;;37.53;27.03;;;11.50;61.90;;;;;;4987629;28;20553;-74
2022/04/25 08:49:19;;;;;;;38.40;27.60;;;11.30;67.90;;;;;;4985722;28;20441;-74
2022/04/25 08:51:46;;;;;;;44.25;27.95;;;11.30;68.70;;;;;;4984369;28;20406;-74
2022/04/25 08:54:13;;;;;;;36.97;27.40;;;11.50;67.90;;;;;;4985572;28;20876;-74
2022/04/25 08:56:41;;;;;;;37.10;27.20;;;11.70;61.60;;;;;;4987084;28;20848;-76
2022/04/25 08:59:07;;;;;;;40.15;28.50;;;11.90;60.70;;;;;;4993991;28;20434;-76
2022/04/25 09:01:34;;;;;;;44.60;29.00;;;11.90;62.20;;;;;;4992805;28;20451;-75
2022/04/25 09:04:01;;;;;;;36.67;27.90;;;11.90;66.40;;;;;;4993118;28;20753;-74
2022/04/25 09:06:27;;;;;;;41.15;27.95;;;12.20;61.20;;;;;;4994707;28;20433;-77
2022/04/25 09:08:52;;;;;;;35.85;26.75;;;12.40;59.30;;;;;;4994875;28;20406;-76
2022/04/25 09:14:03;;;;;;;35.08;26.25;;;13.00;50.20;;;;;;4989339;28;20754;-74
2022/04/25 09:16:29;;;;;;;34.80;26.95;;;13.10;51.90;;;;;;4989648;28;20407;-74
2022/04/25 09:18:55;;;;;;;36.80;27.05;;;13.40;50.70;;;;;;4986161;28;20451;-74
2022/04/25 09:21:21;;;;;;;35.00;25.92;;;13.80;52.10;;;;;;4988041;28;20416;-73
2022/04/25 09:23:47;;;;;;;32.70;25.40;;;14.00;44.30;;;;;;4986307;28;20495;-74
2022/04/25 09:26:21;;;;;;;32.50;23.20;;;14.00;45.40;;;;;;4980891;28;20479;-74
2022/04/25 09:28:52;;;;;;;30.15;23.60;;;13.90;44.50;;;;;;4984649;28;20418;-73
2022/04/25 09:31:18;;;;;;;28.38;20.60;;;13.70;47.80;;;;;;4989889;28;20426;-75
2022/04/25 09:33:44;;;;;;;30.73;23.00;;;13.60;46.30;;;;;;4991696;28;20405;-73
2022/04/25 09:36:10;;;;;;;29.60;23.13;;;13.50;48.20;;;;;;4990204;28;20418;-73
2022/04/25 09:38:38;;;;;;;32.05;21.30;;;13.50;52.60;;;;;;4991689;28;20403;-73
2022/04/25 09:41:07;;;;;;;26.98;20.42;;;13.60;49.20;;;;;;4988245;28;20404;-75
2022/04/25 09:43:35;;;;;;;26.67;20.10;;;13.70;50.70;;;;;;4987976;28;20913;-73
2022/04/25 09:46:06;;;;;;;24.38;17.23;;;13.90;49.40;;;;;;4986799;28;20418;-74
2022/04/25 09:48:32;;;;;;;21.10;17.10;;;13.80;41.10;;;;;;4984806;28;20498;-74
2022/04/25 09:51:03;;;;;;;25.30;18.48;;;13.50;43.40;;;;;;4983339;28;20883;-74
2022/04/25 09:53:41;;;;;;;22.88;17.90;;;13.50;43.90;;;;;;4987255;28;20984;-74
2022/04/25 09:56:17;;;;;;;22.47;17.17;;;13.50;45.90;;;;;;4984442;28;21313;-74
2022/04/25 09:58:44;;;;;;;23.25;18.02;;;13.30;46.40;;;;;;4986265;28;20391;-74
2022/04/25 10:01:14;;;;;;;23.38;17.65;;;13.50;45.00;;;;;;4987247;28;20449;-74
2022/04/25 10:03:41;;;;;;;26.70;20.00;;;13.40;47.20;;;;;;4986907;28;20522;-74
2022/04/25 10:06:08;;;;;;;23.92;18.83;;;13.80;47.90;;;;;;4996052;28;20410;-74
2022/04/25 10:08:35;;;;;;;25.35;18.83;;;14.10;47.90;;;;;;4990313;28;20421;-74
2022/04/25 10:11:03;;;;;;;22.10;18.88;;;14.60;42.50;;;;;;4989119;28;20533;-74
2022/04/25 10:13:31;;;;;;;22.38;18.80;;;15.10;41.60;;;;;;4985835;28;20398;-74
2022/04/25 10:15:58;;;;;;;22.00;17.80;;;15.50;38.70;;;;;;4980799;28;20903;-72
2022/04/25 10:18:25;;;;;;;21.35;16.90;;;15.60;33.40;;;;;;4986230;28;20440;-73
2022/04/25 10:20:51;;;;;;;20.67;15.43;;;15.50;34.70;;;;;;4991870;28;20403;-74
2022/04/25 10:23:17;;;;;;;18.85;15.90;;;15.30;35.10;;;;;;4985133;28;20758;-74
2022/04/25 10:25:57;;;;;;;20.35;16.52;;;15.60;35.50;;;;;;4987732;28;20501;-73
2022/04/25 10:28:33;;;;;;;17.30;15.30;;;15.80;30.70;;;;;;4992106;28;20399;-74
2022/04/25 10:31:13;;;;;;;21.00;15.63;;;15.90;33.60;;;;;;4994947;28;20414;-73
2022/04/25 10:33:58;;;;;;;20.35;15.48;;;16.20;29.70;;;;;;4991098;28;20762;-73
2022/04/25 10:36:38;;;;;;;20.80;16.83;;;16.70;28.60;;;;;;4991370;28;20930;-75
2022/04/25 10:39:31;;;;;;;18.25;15.00;;;17.00;28.00;;;;;;4987225;28;20418;-74
2022/04/25 10:44:42;;;;;;;20.67;15.32;;;17.10;25.20;;;;;;5004872;28;20426;-73
2022/04/25 10:47:13;;;;;;;19.05;14.40;;;17.10;26.10;;;;;;4996035;28;20404;-74
2022/04/25 10:49:55;;;;;;;16.33;13.50;;;17.00;25.40;;;;;;4993653;28;20891;-75
2022/04/25 10:55:33;;;;;;;16.30;12.82;;;16.60;25.40;;;;;;4993363;28;20408;-74
2022/04/25 10:58:01;;;;;;;14.38;12.25;;;16.70;24.70;;;;;;4990833;28;20418;-73
2022/04/25 11:00:36;;;;;;;15.60;12.93;;;16.90;23.60;;;;;;4984832;28;20422;-76
2022/04/25 11:03:07;;;;;;;15.85;12.90;;;17.00;22.00;;;;;;4985267;28;20406;-75
2022/04/25 11:05:41;;;;;;;16.85;13.80;;;17.20;23.40;;;;;;4986073;28;20441;-74
2022/04/25 11:08:19;;;;;;;16.02;13.27;;;17.60;21.90;;;;;;4988813;28;20477;-74
2022/04/25 11:11:06;;;;;;;16.85;13.68;;;17.80;20.60;;;;;;4990678;28;20437;-74
2022/04/25 11:13:33;;;;;;;18.03;14.03;;;17.60;20.50;;;;;;4988376;28;20410;-74
2022/04/25 11:16:15;;;;;;;17.02;12.90;;;17.10;21.30;;;;;;4986229;28;20582;-73
2022/04/25 11:18:41;;;;;;;16.73;13.60;;;16.80;22.00;;;;;;4991815;28;20414;-74
2022/04/25 11:21:12;;;;;;;17.42;13.77;;;15.90;24.10;;;;;;4984451;28;20410;-74
2022/04/25 11:23:43;;;;;;;15.23;13.48;;;15.80;24.50;;;;;;4987798;28;20409;-72
2022/04/25 11:26:30;;;;;;;16.63;12.43;;;15.90;24.60;;;;;;4989992;28;20399;-74
2022/04/25 11:29:01;;;;;;;17.35;13.57;;;15.80;23.20;;;;;;4991127;28;20505;-76
2022/04/25 11:31:28;;;;;;;19.70;12.73;;;15.70;23.80;;;;;;4989511;28;20475;-74
2022/04/25 11:33:57;;;;;;;15.20;12.10;;;16.10;25.30;;;;;;4987406;28;20415;-74
2022/04/25 11:36:24;;;;;;;14.55;12.20;;;15.90;21.80;;;;;;4984186;28;20423;-77
2022/04/25 11:41:37;;;;;;;16.63;12.40;;;15.20;22.60;;;;;;4990415;28;21121;-75
2022/04/25 11:44:07;;;;;;;15.65;12.30;;;15.00;22.90;;;;;;4991250;28;20472;-75
2022/04/25 11:46:36;;;;;;;15.70;10.98;;;15.20;23.70;;;;;;4986913;28;21741;-74
2022/04/25 11:49:03;;;;;;;13.70;10.65;;;15.80;22.20;;;;;;4985477;28;20410;-74
2022/04/25 11:51:31;;;;;;;16.30;12.70;;;16.00;21.10;;;;;;4985936;28;20414;-74
2022/04/25 11:54:08;;;;;;;15.25;12.52;;;16.20;21.30;;;;;;4987629;28;20421;-75
2022/04/25 11:56:39;;;;;;;14.83;11.80;;;16.30;20.10;;;;;;4990598;28;20399;-75
2022/04/25 11:59:17;;;;;;;17.30;11.35;;;16.70;20.20;;;;;;4986702;28;20489;-75
2022/04/25 12:01:47;;;;;;;15.23;12.05;;;17.00;18.30;;;;;;4991153;28;20800;-74
2022/04/25 12:04:29;;;;;;;19.98;13.30;;;16.80;19.50;;;;;;4990644;28;20914;-74
2022/04/25 12:07:08;;;;;;;15.15;11.85;;;16.80;21.50;;;;;;4984772;28;20781;-74
2022/04/25 12:18:18;;;;;;;15.57;11.68;;;16.30;22.40;;;;;;4992699;28;20493;-74
2022/04/25 12:21:08;;;;;;;15.45;12.93;;;16.80;20.40;;;;;;4986551;28;20497;-75
2022/04/25 12:23:39;;;;;;;17.80;12.68;;;16.80;20.40;;;;;;4988220;28;20418;-73
2022/04/25 12:26:06;;;;;;;17.02;13.00;;;16.70;21.20;;;;;;4981713;28;20414;-74
2022/04/25 12:28:39;;;;;;;19.10;14.18;;;16.60;20.90;;;;;;4986254;28;20926;-74
2022/04/25 12:31:10;;;;;;;16.90;13.60;;;16.30;23.60;;;;;;4983887;28;20433;-73
2022/04/25 12:33:43;;;;;;;20.20;14.07;;;16.20;25.90;;;;;;4982060;28;20493;-73
2022/04/25 12:36:19;;;;;;;15.90;13.48;;;16.00;23.20;;;;;;4989689;28;20485;-73
2022/04/25 12:38:50;;;;;;;20.38;14.40;;;16.10;22.90;;;;;;4995063;28;20764;-74
2022/04/25 12:41:27;;;;;;;18.30;14.52;;;16.30;23.80;;;;;;4994569;28;20432;-73
2022/04/25 12:43:55;;;;;;;18.65;14.30;;;16.20;24.20;;;;;;4989627;28;20411;-73
2022/04/25 12:46:39;;;;;;;19.08;13.63;;;16.30;23.70;;;;;;4990014;28;20485;-73
2022/04/25 12:49:09;;;;;;;20.38;14.82;;;15.90;25.30;;;;;;4988234;28;20403;-74
2022/04/25 12:51:52;;;;;;;22.13;15.50;;;16.00;27.10;;;;;;4975784;28;20412;-75
2022/04/25 12:54:36;;;;;;;18.88;14.77;;;16.30;25.50;;;;;;4986988;28;20404;-74
2022/04/25 12:57:12;;;;;;;19.00;14.95;;;16.50;24.70;;;;;;4983713;28;20891;-73
2022/04/25 12:59:38;;;;;;;17.95;13.93;;;16.60;23.00;;;;;;4977565;28;20455;-74
2022/04/25 13:02:07;;;;;;;19.90;14.63;;;16.60;23.50;;;;;;4977277;28;20460;-73
2022/04/25 13:04:51;;;;;;;17.20;13.85;;;16.20;22.70;;;;;;4977990;28;20410;-73
2022/04/25 13:07:18;;;;;;;18.55;13.25;;;16.20;23.70;;;;;;4981123;28;20471;-74
2022/04/25 13:09:45;;;;;;;17.67;13.55;;;16.30;22.90;;;;;;4975864;28;20403;-74
2022/04/25 13:12:15;;;;;;;16.20;13.00;;;16.30;22.20;;;;;;4976252;28;20406;-74
2022/04/25 13:14:41;;;;;;;17.60;13.45;;;16.20;23.90;;;;;;4982890;28;20500;-74
2022/04/25 13:17:07;;;;;;;19.40;14.43;;;16.10;24.50;;;;;;4975988;28;20828;-75
2022/04/25 13:19:33;;;;;;;17.37;13.10;;;16.40;23.90;;;;;;4979271;28;20465;-74
2022/04/25 13:21:58;;;;;;;16.20;13.40;;;16.70;21.40;;;;;;4984053;28;20764;-73
2022/04/25 13:24:24;;;;;;;17.70;13.20;;;17.20;19.60;;;;;;4979566;28;20420;-74
2022/04/25 13:26:49;;;;;;;16.70;13.32;;;17.60;20.60;;;;;;4989182;28;20398;-73